• Join FlightAware (Why Join?)
  • Login
  • US Flag 
07:15AM EST


 

Airport Tracker/Info


-or-


 

Live Flight TrackerFlight Track Log ✈ ASQ4283 ✈ 10-Jul-2013 ✈ KORD - KGSP

Flight Track Log - Related Links

Times and Time Zones

All times are in EDT time to prevent confusion due to time zone crossing. See the ASQ4283 flight status page for this flight to view local times or setup timezone preferences in your user account.

Time Position Orientation Groundspeed Altitude Reporting Facility
EDT Latitude Longitude Course Direction KTS MPH feet Rate Location/Type
08:15AM 41.9333 -87.9167 178° South 193 222 1,700  Level Chicago TRACON
08:17AM 41.8100 -87.8867 170° South 253 291 6,000 2,280 Climbing Chicago Center
08:18AM 41.7283 -87.8208 149° Southeast 280 322 8,800 2,460 Climbing Chicago Center
08:19AM 41.6309 -87.5909 156° South  Level Estimated
08:19AM 41.6539 -87.7600 149° Southeast 306 352 11,100  Level Chicago Center
08:20AM 41.5253 -87.5865 178° South  Level FlightAware Approximate
08:20AM 41.5789 -87.6981 148° Southeast 315 362 13,200  Level Chicago Center
08:21AM 41.4961 -87.6306 149° Southeast 344 396 14,200 1,020 Climbing Chicago Center
08:22AM 41.3994 -87.5697 155° Southeast 382 440 15,400 1,260 Climbing Chicago Center
08:23AM 41.2928 -87.5506 172° South 387 445 16,900 1,500 Climbing Chicago Center
08:24AM 41.1850 -87.5300 172° South 390 449 18,500 1,620 Climbing Chicago Center
08:25AM 41.0550 -87.4939 168° South 397 457 20,300 1,560 Climbing Chicago Center
08:26AM 40.9456 -87.4653 169° South 399 459 21,800 1,440 Climbing Chicago Center
08:27AM 40.8364 -87.4358 168° South 401 461 23,300 1,440 Climbing Chicago Center
08:28AM 40.7281 -87.4072 169° South 399 459 24,800 1,440 Climbing Chicago Center
08:29AM 40.6194 -87.3794 169° South 398 458 26,300 1,020 Climbing Chicago Center
08:31AM 40.5117 -87.3506 168° South 397 457 27,000 300 Climbing Chicago Center
08:32AM 40.3917 -87.3047 164° South 437 503 27,000 120 Level Chicago Center
08:33AM 40.2469 -87.2383 161° South 461 531 27,300 600 Climbing Chicago Center
08:34AM 40.1275 -87.1800 160° South 458 527 28,300 900 Climbing Chicago Center
08:34AM 40.0311 -87.1375 161° South 455 524 29,000 360 Climbing Indianapolis Center
08:35AM 39.9175 -87.0586 152° Southeast 473 544 29,000  Level Indianapolis Center
08:37AM 39.8044 -86.9642 147° Southeast 483 556 29,000  Level Indianapolis Center
08:38AM 39.6681 -86.8503 147° Southeast 490 564 29,000  Level Indianapolis Center
08:39AM 39.5544 -86.7553 147° Southeast 491 565 29,000  Level Indianapolis Center
08:40AM 39.4408 -86.6614 147° Southeast 492 566 29,000  Level Indianapolis Center
08:41AM 39.3275 -86.5672 147° Southeast 491 565 29,000  Level Indianapolis Center
08:42AM 39.2136 -86.4736 148° Southeast 491 565 29,000  Level Indianapolis Center
08:43AM 39.0764 -86.3603 147° Southeast 492 566 29,000  Level Indianapolis Center
08:44AM 38.9611 -86.2672 148° Southeast 492 566 29,000  Level Indianapolis Center
08:45AM 38.8356 -86.1647 148° Southeast 488 562 29,000  Level Indianapolis Center
08:46AM 38.7200 -86.0708 148° Southeast 488 562 29,000  Level Indianapolis Center
08:47AM 38.6053 -85.9786 148° Southeast 485 558 29,000  Level Indianapolis Center
08:48AM 38.4911 -85.8861 148° Southeast 483 556 29,000  Level Indianapolis Center
08:49AM 38.3761 -85.7939 148° Southeast 483 556 29,000  Level Indianapolis Center
08:50AM 38.2625 -85.7033 148° Southeast 479 551 29,000  Level Indianapolis Center
08:51AM 38.1489 -85.6119 148° Southeast 481 554 29,000  Level Indianapolis Center
08:52AM 38.0478 -85.5000 139° Southeast 486 559 29,000  Level Indianapolis Center
08:53AM 37.9564 -85.3731 132° Southeast 485 558 29,000  Level Indianapolis Center
08:54AM 37.8481 -85.2214 132° Southeast 483 556 29,000  Level Indianapolis Center
08:55AM 37.7644 -85.1033 132° Southeast 478 550 29,000  Level Indianapolis Center
08:56AM 37.6733 -84.9786 133° Southeast 482 555 29,000  Level Indianapolis Center
08:57AM 37.5672 -84.8356 133° Southeast 478 550 29,000  Level Indianapolis Center
08:58AM 37.4781 -84.7122 132° Southeast 476 548 29,000  Level Indianapolis Center
08:59AM 37.3883 -84.5897 133° Southeast 477 549 29,000  Level Indianapolis Center
09:00AM 37.2972 -84.4678 133° Southeast 478 550 29,000  Level Indianapolis Center
09:01AM 37.2072 -84.3456 133° Southeast 477 549 29,000  Level Indianapolis Center
09:02AM 37.1189 -84.2250 133° Southeast 471 542 29,000  Level Indianapolis Center
09:03AM 37.0128 -84.0839 133° Southeast 475 547 29,000  Level Indianapolis Center
09:04AM 36.9256 -83.9608 132° Southeast 475 547 29,000 -360 Level Indianapolis Center
09:05AM 36.8378 -83.8386 132° Southeast 474 545 28,300 -1,200 Descending Indianapolis Center
09:06AM 36.7503 -83.7172 132° Southeast 472 543 26,600 -1,680 Descending Indianapolis Center
09:07AM 36.6650 -83.5989 132° Southeast 464 534 24,900 -1,260 Descending Indianapolis Center
09:09AM 36.5683 -83.4650 132° Southeast 450 518 24,000 -480 Descending Indianapolis Center
09:10AM 36.4839 -83.3525 133° Southeast 447 514 24,000  Level Indianapolis Center
09:11AM 36.3983 -83.2353 132° Southeast 456 525 24,000 -540 Level Indianapolis Center
09:12AM 36.3131 -83.1194 132° Southeast 457 526 23,000 -1,140 Descending Indianapolis Center
09:13AM 36.2269 -83.0067 133° Southeast 457 526 21,900 -1,080 Descending Atlanta Center
09:14AM 36.1489 -82.8969 131° Southeast 443 510 21,000 -480 Descending Atlanta Center
09:15AM 36.0708 -82.7928 133° Southeast 425 489 21,000  Level Atlanta Center
09:16AM 35.9800 -82.6942 139° Southeast 425 489 21,000  Level Atlanta Center
09:17AM 35.8747 -82.6164 149° Southeast 437 503 21,000 -900 Level Atlanta Center
09:18AM 35.7739 -82.5414 149° Southeast 437 503 19,300 -2,100 Descending Atlanta Center
09:19AM 35.6853 -82.4739 148° Southeast 418 481 16,800 -2,640 Descending Atlanta Center
09:20AM 35.5886 -82.4069 151° Southeast 405 466 14,100 -2,640 Descending Atlanta Center
09:21AM 35.4978 -82.3397 149° Southeast 398 458 11,600 -1,980 Descending Atlanta Center
09:22AM 35.4008 -82.2731 151° Southeast 379 436 10,200 -1,320 Descending Atlanta Center
09:23AM 35.3194 -82.2594 172° South 323 372 9,000 -1,500 Descending Atlanta Center
09:24AM 35.2500 -82.2256 158° South 288 331 7,200 -1,800 Descending Atlanta Center
09:25AM 35.1969 -82.1556 133° Southeast 267 307 5,400 -1,740 Descending Atlanta Center
09:26AM 35.1436 -82.0881 134° Southeast 272 313 3,800 -1,380 Descending Atlanta Center
09:27AM 35.0869 -82.0639 161° South 222 255 2,700 -1,140 Descending Atlanta Center